createdAt,value
2022-08-07T00:00:11.433Z,943.06
2022-08-07T00:01:12.880Z,943.09
2022-08-07T00:03:00.322Z,943.06
2022-08-07T00:04:01.286Z,943.02
2022-08-07T00:05:03.862Z,943.01
2022-08-07T00:06:02.226Z,942.98
2022-08-07T00:07:05.066Z,942.99
2022-08-07T00:08:15.270Z,942.96
2022-08-07T00:09:21.005Z,942.94
2022-08-07T00:10:29.940Z,942.96
2022-08-07T00:11:30.223Z,943
2022-08-07T00:12:26.835Z,942.95
2022-08-07T00:13:27.299Z,942.97
2022-08-07T00:14:29.952Z,943.02
2022-08-07T00:15:35.842Z,943.01
2022-08-07T00:16:28.678Z,943
2022-08-07T00:17:29.419Z,943.01
2022-08-07T00:18:30.185Z,942.99
2022-08-07T00:19:34.420Z,943.01
2022-08-07T00:20:41.633Z,942.97
2022-08-07T00:21:55.862Z,942.95
2022-08-07T00:22:51.935Z,942.95
2022-08-07T00:23:52.159Z,942.95
2022-08-07T00:24:52.580Z,942.92
2022-08-07T00:25:59.147Z,942.9
2022-08-07T00:27:13.831Z,942.92
2022-08-07T00:28:14.109Z,942.92
2022-08-07T00:29:32.788Z,942.89
2022-08-07T00:30:33.096Z,942.86
2022-08-07T00:31:37.247Z,942.85
2022-08-07T00:32:34.933Z,942.87
2022-08-07T00:33:34.874Z,942.87
2022-08-07T00:34:35.847Z,942.85
2022-08-07T00:35:36.664Z,942.88
2022-08-07T00:36:38.470Z,942.85
2022-08-07T00:37:41.507Z,942.87
2022-08-07T00:38:39.047Z,942.9
2022-08-07T00:39:44.972Z,942.9
2022-08-07T00:40:40.740Z,942.86
2022-08-07T00:41:45.429Z,942.86
2022-08-07T00:42:40.538Z,942.85
2022-08-07T00:44:00.135Z,942.82
2022-08-07T00:44:41.602Z,942.79
2022-08-07T00:45:42.491Z,942.77
2022-08-07T00:46:43.221Z,942.74
2022-08-07T00:48:05.583Z,942.73
2022-08-07T00:48:43.173Z,942.69
2022-08-07T00:50:52.055Z,942.65
2022-08-07T00:51:57.840Z,942.65
2022-08-07T00:52:53.212Z,942.63
2022-08-07T00:53:55.148Z,942.67
2022-08-07T00:54:54.601Z,942.66
2022-08-07T00:56:14.562Z,942.67
2022-08-07T00:57:15.256Z,942.68
2022-08-07T00:58:15.651Z,942.68
2022-08-07T00:59:16.383Z,942.67
2022-08-07T01:00:17.316Z,942.65
2022-08-07T01:01:18.250Z,942.68
2022-08-07T01:02:28.218Z,942.65
2022-08-07T01:03:18.829Z,942.63
2022-08-07T01:04:25.308Z,942.64
2022-08-07T01:05:25.822Z,942.62
2022-08-07T01:06:26.509Z,942.63
2022-08-07T01:07:28.007Z,942.61
2022-08-07T01:08:28.014Z,942.57
2022-08-07T01:09:35.721Z,942.57
2022-08-07T01:10:29.079Z,942.52
2022-08-07T01:12:31.687Z,942.5
2022-08-07T01:13:35.117Z,942.48
2022-08-07T01:14:33.107Z,942.48
2022-08-07T01:15:36.162Z,942.49
2022-08-07T01:16:37.148Z,942.46
2022-08-07T01:17:37.396Z,942.43
2022-08-07T01:18:37.946Z,942.43
2022-08-07T01:19:39.893Z,942.44
2022-08-07T01:20:43.126Z,942.44
2022-08-07T01:21:40.156Z,942.41
2022-08-07T01:22:41.443Z,942.4
2022-08-07T01:23:46.607Z,942.43
2022-08-07T01:24:44.561Z,942.39
2022-08-07T01:25:55.003Z,942.39
2022-08-07T01:26:47.924Z,942.4
2022-08-07T01:27:51.276Z,942.35
2022-08-07T01:28:48.206Z,942.31
2022-08-07T01:29:47.060Z,942.35
2022-08-07T01:30:47.264Z,942.32
2022-08-07T01:31:48.384Z,942.31
2022-08-07T01:32:48.945Z,942.31
2022-08-07T01:33:53.898Z,942.29
2022-08-07T01:34:50.756Z,942.27
2022-08-07T01:35:53.031Z,942.27
2022-08-07T01:36:53.011Z,942.3
2022-08-07T01:37:52.275Z,942.3
2022-08-07T01:38:52.857Z,942.31
2022-08-07T01:39:53.106Z,942.31
2022-08-07T01:40:53.625Z,942.27
2022-08-07T01:41:54.988Z,942.28
2022-08-07T01:43:43.023Z,942.2
2022-08-07T01:44:43.190Z,942.22
2022-08-07T01:45:43.679Z,942.16
2022-08-07T01:46:43.885Z,942.15
2022-08-07T01:48:29.233Z,942.2
2022-08-07T01:49:21.365Z,942.21
2022-08-07T01:50:22.643Z,942.21
2022-08-07T01:51:24.837Z,942.22
2022-08-07T01:52:22.616Z,942.22
2022-08-07T01:54:09.789Z,942.22
2022-08-07T01:55:24.516Z,942.18
2022-08-07T01:56:24.680Z,942.19
2022-08-07T01:57:25.140Z,942.15
2022-08-07T01:58:34.107Z,942.15
2022-08-07T01:59:34.139Z,942.19
2022-08-07T02:00:34.724Z,942.13
2022-08-07T02:02:02.904Z,942.15
2022-08-07T02:03:50.555Z,942.11
2022-08-07T02:04:52.451Z,942.12
2022-08-07T02:06:01.430Z,942.08
2022-08-07T02:07:17.573Z,942.1
2022-08-07T02:08:18.459Z,942.09
2022-08-07T02:09:33.713Z,942.06
2022-08-07T02:10:19.956Z,942.05
2022-08-07T02:11:30.635Z,942.03
2022-08-07T02:12:31.667Z,942.07
2022-08-07T02:13:56.966Z,941.99
2022-08-07T02:14:42.156Z,941.97
2022-08-07T02:15:42.642Z,942
2022-08-07T02:16:43.221Z,941.99
2022-08-07T02:17:49.276Z,941.97
2022-08-07T02:18:45.437Z,941.99
2022-08-07T02:20:07.877Z,941.95
2022-08-07T02:21:06.108Z,941.95
2022-08-07T02:22:07.725Z,941.94
2022-08-07T02:23:05.923Z,941.94
2022-08-07T02:24:06.455Z,941.9
2022-08-07T02:25:06.976Z,941.92
2022-08-07T02:26:37.283Z,941.9
2022-08-07T02:27:41.089Z,941.89
2022-08-07T02:28:42.204Z,941.9
2022-08-07T02:29:43.656Z,941.9
2022-08-07T02:30:43.438Z,941.89
2022-08-07T02:31:43.751Z,941.88
2022-08-07T02:33:00.297Z,941.89
2022-08-07T02:34:03.389Z,941.88
2022-08-07T02:35:02.758Z,941.89
2022-08-07T02:36:38.357Z,941.9
2022-08-07T02:37:38.537Z,941.91
2022-08-07T02:38:38.777Z,941.87
2022-08-07T02:40:36.110Z,941.9
2022-08-07T02:41:37.247Z,941.9
2022-08-07T02:42:37.182Z,941.93
2022-08-07T02:43:38.986Z,941.9
2022-08-07T02:44:38.567Z,941.88
2022-08-07T02:46:01.044Z,941.9
2022-08-07T02:46:59.210Z,941.9
2022-08-07T02:47:59.509Z,941.92
2022-08-07T02:49:00.231Z,941.87
2022-08-07T02:50:13.561Z,941.88
2022-08-07T02:51:52.134Z,941.89
2022-08-07T02:52:50.582Z,941.9
2022-08-07T02:53:51.651Z,941.93
2022-08-07T02:54:52.032Z,941.88
2022-08-07T02:56:02.942Z,941.87
2022-08-07T02:56:52.836Z,941.83
2022-08-07T02:57:53.159Z,941.85
2022-08-07T02:58:53.933Z,941.89
2022-08-07T02:59:55.068Z,941.88
2022-08-07T03:00:55.408Z,941.87
2022-08-07T03:02:12.518Z,941.84
2022-08-07T03:03:13.408Z,941.89
2022-08-07T03:04:14.062Z,941.86
2022-08-07T03:05:14.795Z,941.89
2022-08-07T03:06:16.290Z,941.89
2022-08-07T03:07:16.699Z,941.84
2022-08-07T03:08:29.636Z,941.82
2022-08-07T03:09:42.487Z,941.82
2022-08-07T03:10:29.855Z,941.82
2022-08-07T03:11:32.807Z,941.78
2022-08-07T03:13:08.761Z,941.8
2022-08-07T03:14:08.925Z,941.81
2022-08-07T03:15:09.481Z,941.81
2022-08-07T03:16:10.152Z,941.76
2022-08-07T03:17:11.207Z,941.76
2022-08-07T03:18:11.597Z,941.77
2022-08-07T03:19:12.034Z,941.77
2022-08-07T03:20:12.368Z,941.8
2022-08-07T03:21:13.410Z,941.8
2022-08-07T03:22:18.683Z,941.77
2022-08-07T03:24:27.110Z,941.79
2022-08-07T03:25:20.892Z,941.81
2022-08-07T03:26:23.506Z,941.78
2022-08-07T03:27:30.204Z,941.81
2022-08-07T03:28:52.200Z,941.77
2022-08-07T03:29:53.133Z,941.79
2022-08-07T03:30:53.417Z,941.79
2022-08-07T03:31:54.209Z,941.8
2022-08-07T03:32:57.100Z,941.8
2022-08-07T03:33:55.279Z,941.78
2022-08-07T03:35:26.585Z,941.79
2022-08-07T03:36:27.038Z,941.8
2022-08-07T03:37:27.982Z,941.77
2022-08-07T03:38:29.329Z,941.78
2022-08-07T03:39:46.634Z,941.76
2022-08-07T03:40:36.918Z,941.75
2022-08-07T03:41:41.865Z,941.75
2022-08-07T03:42:37.852Z,941.8
2022-08-07T03:43:38.620Z,941.78
2022-08-07T03:44:39.115Z,941.76
2022-08-07T03:45:49.128Z,941.79
2022-08-07T03:47:11.622Z,941.73
2022-08-07T03:47:52.009Z,941.74
2022-08-07T03:49:02.274Z,941.77
2022-08-07T03:49:53.449Z,941.72
2022-08-07T03:50:55.787Z,941.72
2022-08-07T03:51:55.269Z,941.72
2022-08-07T03:52:55.418Z,941.71
2022-08-07T03:54:02.143Z,941.71
2022-08-07T03:55:18.109Z,941.7
2022-08-07T03:57:08.476Z,941.69
2022-08-07T03:59:21.934Z,941.65
2022-08-07T04:00:29.476Z,941.65
2022-08-07T04:01:23.155Z,941.67
2022-08-07T04:02:23.353Z,941.67
2022-08-07T04:03:23.903Z,941.67
2022-08-07T04:04:24.773Z,941.66
2022-08-07T04:05:28.875Z,941.63
2022-08-07T04:06:36.571Z,941.65
2022-08-07T04:07:25.780Z,941.65
2022-08-07T04:08:33.568Z,941.68
2022-08-07T04:09:38.121Z,941.65
2022-08-07T04:10:34.718Z,941.65
2022-08-07T04:12:41.315Z,941.64
2022-08-07T04:14:09.754Z,941.67
2022-08-07T04:15:00.555Z,941.68
2022-08-07T04:16:01.189Z,941.64
2022-08-07T04:17:03.207Z,941.67
2022-08-07T04:19:03.966Z,941.68
2022-08-07T04:20:02.736Z,941.68
2022-08-07T04:21:03.105Z,941.7
2022-08-07T04:22:06.178Z,941.7
2022-08-07T04:23:06.128Z,941.7
2022-08-07T04:24:08.425Z,941.75
2022-08-07T04:25:11.990Z,941.71
2022-08-07T04:26:09.124Z,941.74
2022-08-07T04:27:15.423Z,941.75
2022-08-07T04:28:10.405Z,941.77
2022-08-07T04:29:10.962Z,941.78
2022-08-07T04:30:21.756Z,941.77
2022-08-07T04:32:11.600Z,941.76
2022-08-07T04:33:13.951Z,941.76
2022-08-07T04:34:16.337Z,941.74
2022-08-07T04:35:13.765Z,941.75
2022-08-07T04:36:14.333Z,941.82
2022-08-07T04:37:15.338Z,941.76
2022-08-07T04:38:15.936Z,941.72
2022-08-07T04:39:17.585Z,941.75
2022-08-07T04:40:17.537Z,941.75
2022-08-07T04:41:18.315Z,941.75
2022-08-07T04:42:29.481Z,941.78
2022-08-07T04:44:10.792Z,941.77
2022-08-07T04:44:36.410Z,941.78
2022-08-07T04:46:01.449Z,941.76
2022-08-07T04:47:08.878Z,941.77
2022-08-07T04:48:23.814Z,941.81
2022-08-07T04:49:25.659Z,941.85
2022-08-07T04:50:25.181Z,941.81
2022-08-07T04:51:27.026Z,941.8
2022-08-07T04:52:27.496Z,941.83
2022-08-07T04:54:08.098Z,941.84
2022-08-07T04:55:15.151Z,941.8
2022-08-07T04:58:26.554Z,941.84
2022-08-07T05:01:13.429Z,941.84
2022-08-07T05:02:16.772Z,941.85
2022-08-07T05:03:16.946Z,941.86
2022-08-07T05:04:32.067Z,941.86
2022-08-07T05:05:52.468Z,941.9
2022-08-07T05:06:51.379Z,941.89
2022-08-07T05:07:48.111Z,941.9
2022-08-07T05:09:00.314Z,941.9
2022-08-07T05:09:47.086Z,941.9
2022-08-07T05:10:47.328Z,941.89
2022-08-07T05:11:56.756Z,941.86
2022-08-07T05:14:59.327Z,941.9
2022-08-07T05:16:05.564Z,941.89
2022-08-07T05:17:11.762Z,941.87
2022-08-07T05:18:14.679Z,941.9
2022-08-07T05:19:15.645Z,941.86
2022-08-07T05:20:16.722Z,941.88
2022-08-07T05:21:17.579Z,941.9
2022-08-07T05:22:34.906Z,941.92
2022-08-07T05:23:35.618Z,941.87
2022-08-07T05:24:39.402Z,941.85
2022-08-07T05:25:54.517Z,941.85
2022-08-07T05:28:26.676Z,941.86
2022-08-07T05:29:24.311Z,941.88
2022-08-07T05:30:30.416Z,941.87
2022-08-07T05:31:34.501Z,941.84
2022-08-07T05:32:26.563Z,941.84
2022-08-07T05:33:27.177Z,941.84
2022-08-07T05:34:27.833Z,941.85
2022-08-07T05:35:33.287Z,941.84
2022-08-07T05:36:30.435Z,941.83
2022-08-07T05:37:30.318Z,941.84
2022-08-07T05:40:21.178Z,941.82
2022-08-07T05:41:22.214Z,941.82
2022-08-07T05:42:36.783Z,941.81
2022-08-07T05:43:43.340Z,941.82
2022-08-07T05:44:35.327Z,941.86
2022-08-07T05:45:56.815Z,941.86
2022-08-07T05:46:57.459Z,941.84
2022-08-07T05:48:06.871Z,941.86
2022-08-07T05:49:09.043Z,941.85
2022-08-07T05:50:08.090Z,941.89
2022-08-07T05:51:08.901Z,941.93
2022-08-07T05:52:11.551Z,941.91
2022-08-07T05:54:09.764Z,941.93
2022-08-07T05:55:16.818Z,941.96
2022-08-07T05:56:16.487Z,941.96
2022-08-07T05:57:16.805Z,941.97
2022-08-07T05:58:16.923Z,941.99
2022-08-07T05:59:17.159Z,941.98
2022-08-07T06:00:17.804Z,941.98
2022-08-07T06:01:18.002Z,942
2022-08-07T06:02:21.790Z,942.02
2022-08-07T06:03:19.838Z,942.03
2022-08-07T06:04:20.750Z,942.01
2022-08-07T06:05:25.734Z,942.01
2022-08-07T06:06:21.610Z,942.04
2022-08-07T06:07:22.888Z,942.05
2022-08-07T06:08:52.240Z,942.09
2022-08-07T06:10:04.867Z,942.11
2022-08-07T06:10:54.821Z,942.08
2022-08-07T06:11:54.347Z,942.05
2022-08-07T06:12:55.070Z,942.03
2022-08-07T06:14:11.266Z,942.05
2022-08-07T06:14:58.762Z,942.04
2022-08-07T06:15:56.350Z,942
2022-08-07T06:16:57.089Z,942.05
2022-08-07T06:17:57.022Z,942.06
2022-08-07T06:18:58.024Z,942.06
2022-08-07T06:20:04.687Z,942.08
2022-08-07T06:22:28.043Z,942.08
2022-08-07T06:24:53.548Z,942.07
2022-08-07T06:25:57.884Z,942.05
2022-08-07T06:26:58.233Z,942.03
2022-08-07T06:28:01.863Z,942.04
2022-08-07T06:29:01.480Z,942.09
2022-08-07T06:30:02.042Z,942.04
2022-08-07T06:31:02.299Z,942.08
2022-08-07T06:32:02.862Z,942.11
2022-08-07T06:33:03.526Z,942.12
2022-08-07T06:34:03.980Z,942.11
2022-08-07T06:35:10.471Z,942.11
2022-08-07T06:37:08.778Z,942.06
2022-08-07T06:38:10.116Z,942.07
2022-08-07T06:40:13.850Z,942.1
2022-08-07T06:40:53.585Z,942.09
2022-08-07T06:42:00.400Z,942.09
2022-08-07T06:42:55.508Z,942.05
2022-08-07T06:43:59.305Z,942.06
2022-08-07T06:44:56.549Z,942.08
2022-08-07T06:46:00.202Z,942.03
2022-08-07T06:47:09.776Z,942.06
2022-08-07T06:48:29.080Z,942.02
2022-08-07T06:49:29.400Z,942.04
2022-08-07T06:50:30.374Z,942.05
2022-08-07T06:51:31.480Z,942.04
2022-08-07T06:52:35.435Z,942.05
2022-08-07T06:54:12.494Z,942.04
2022-08-07T06:56:21.268Z,942.04
2022-08-07T06:57:22.057Z,942.07
2022-08-07T06:58:24.552Z,942.07
2022-08-07T07:00:20.958Z,942.03
2022-08-07T07:01:21.137Z,942.05
2022-08-07T07:02:26.910Z,942.03
2022-08-07T07:03:39.992Z,942.02
2022-08-07T07:04:55.884Z,942.04
2022-08-07T07:06:06.632Z,942.07
2022-08-07T07:07:10.542Z,942.05
2022-08-07T07:08:34.050Z,942.08
2022-08-07T07:09:36.188Z,942.07
2022-08-07T07:10:34.851Z,942.07
2022-08-07T07:12:25.686Z,942.05
2022-08-07T07:14:03.094Z,942.05
2022-08-07T07:15:03.709Z,942.01
2022-08-07T07:16:03.998Z,942
2022-08-07T07:17:04.646Z,941.99
2022-08-07T07:18:05.610Z,941.96
2022-08-07T07:19:11.607Z,941.98
2022-08-07T07:20:16.370Z,941.98
2022-08-07T07:21:19.328Z,941.95
2022-08-07T07:24:21.390Z,941.97
2022-08-07T07:26:38.157Z,941.95
2022-08-07T07:27:56.001Z,941.92
2022-08-07T07:30:42.430Z,941.95
2022-08-07T07:31:46.546Z,941.97
2022-08-07T07:32:45.406Z,941.96
2022-08-07T07:33:48.997Z,941.98
2022-08-07T07:34:46.237Z,941.97
2022-08-07T07:35:54.533Z,942.01
2022-08-07T07:36:47.745Z,941.96
2022-08-07T07:38:11.808Z,941.94
2022-08-07T07:39:12.032Z,941.92
2022-08-07T07:40:14.669Z,941.92
2022-08-07T07:41:12.786Z,941.93
2022-08-07T07:42:55.522Z,941.91
2022-08-07T07:44:25.714Z,941.92
2022-08-07T07:46:33.421Z,941.91
2022-08-07T07:47:29.491Z,941.94
2022-08-07T07:48:34.918Z,941.92
2022-08-07T07:50:37.939Z,941.94
2022-08-07T07:51:32.476Z,941.95
2022-08-07T07:52:32.947Z,941.97
2022-08-07T07:53:34.769Z,941.96
2022-08-07T07:54:34.277Z,941.98
2022-08-07T07:55:58.018Z,941.97
2022-08-07T07:56:55.423Z,941.99
2022-08-07T07:57:58.261Z,941.99
2022-08-07T07:58:56.187Z,941.98
2022-08-07T07:59:57.096Z,941.97
2022-08-07T08:00:58.305Z,941.96
2022-08-07T08:03:07.017Z,941.94
2022-08-07T08:04:27.415Z,941.97
2022-08-07T08:05:30.322Z,941.99
2022-08-07T08:06:27.639Z,941.97
2022-08-07T08:08:01.142Z,941.97
2022-08-07T08:09:00.664Z,941.99
2022-08-07T08:10:04.721Z,942
2022-08-07T08:11:02.511Z,941.98
2022-08-07T08:12:36.723Z,941.97
2022-08-07T08:13:16.792Z,941.99
2022-08-07T08:14:21.447Z,941.96
2022-08-07T08:15:21.724Z,941.99
2022-08-07T08:16:18.519Z,941.99
2022-08-07T08:17:57.016Z,942.01
2022-08-07T08:20:26.327Z,941.97
2022-08-07T08:22:04.456Z,941.98
2022-08-07T08:23:04.698Z,941.92
2022-08-07T08:24:05.585Z,941.94
2022-08-07T08:25:48.940Z,941.98
2022-08-07T08:26:43.226Z,941.96
2022-08-07T08:27:56.065Z,941.99
2022-08-07T08:28:44.986Z,942.01
2022-08-07T08:29:45.260Z,942.01
2022-08-07T08:30:50.925Z,942.05
2022-08-07T08:31:59.435Z,941.97
2022-08-07T08:33:33.702Z,942.01
2022-08-07T08:34:33.916Z,942.01
2022-08-07T08:35:39.196Z,942.01
2022-08-07T08:36:35.524Z,942
2022-08-07T08:37:59.937Z,942.01
2022-08-07T08:38:40.621Z,942.03
2022-08-07T08:39:39.204Z,941.98
2022-08-07T08:40:37.151Z,942.04
2022-08-07T08:41:57.950Z,942.01
2022-08-07T08:42:40.369Z,942.02
2022-08-07T08:43:59.870Z,942.03
2022-08-07T08:45:00.545Z,942.03
2022-08-07T08:46:01.466Z,942.03
2022-08-07T08:47:02.556Z,942.03
2022-08-07T08:48:02.824Z,942.08
2022-08-07T08:49:05.068Z,942.09
2022-08-07T08:50:05.270Z,942.07
2022-08-07T08:51:14.457Z,942.13
2022-08-07T08:52:35.923Z,942.11
2022-08-07T08:53:33.114Z,942.13
2022-08-07T08:54:34.063Z,942.14
2022-08-07T08:55:54.132Z,942.14
2022-08-07T08:56:36.083Z,942.15
2022-08-07T08:57:36.801Z,942.15
2022-08-07T08:58:37.035Z,942.16
2022-08-07T08:59:41.910Z,942.12
2022-08-07T09:00:42.446Z,942.15
2022-08-07T09:01:39.707Z,942.15
2022-08-07T09:02:39.457Z,942.17
2022-08-07T09:03:47.818Z,942.17
2022-08-07T09:04:44.139Z,942.17
2022-08-07T09:05:44.974Z,942.13
2022-08-07T09:06:47.901Z,942.11
2022-08-07T09:07:57.403Z,942.14
2022-08-07T09:08:47.591Z,942.14
2022-08-07T09:09:48.233Z,942.13
2022-08-07T09:10:48.849Z,942.16
2022-08-07T09:11:50.692Z,942.12
2022-08-07T09:12:54.407Z,942.14
2022-08-07T09:13:54.274Z,942.13
2022-08-07T09:14:59.701Z,942.15
2022-08-07T09:16:48.134Z,942.12
2022-08-07T09:17:58.715Z,942.13
2022-08-07T09:18:53.105Z,942.14
2022-08-07T09:20:37.196Z,942.12
2022-08-07T09:22:09.617Z,942.15
2022-08-07T09:25:06.172Z,942.17
2022-08-07T09:26:05.612Z,942.18
2022-08-07T09:27:08.985Z,942.16
2022-08-07T09:29:24.405Z,942.16
2022-08-07T09:30:28.966Z,942.17
2022-08-07T09:31:33.688Z,942.2
2022-08-07T09:32:31.012Z,942.2
2022-08-07T09:33:41.423Z,942.21
2022-08-07T09:34:31.514Z,942.21
2022-08-07T09:36:01.852Z,942.23
2022-08-07T09:36:35.607Z,942.23
2022-08-07T09:37:55.000Z,942.25
2022-08-07T09:38:55.887Z,942.25
2022-08-07T09:40:09.163Z,942.24
2022-08-07T09:41:09.395Z,942.25
2022-08-07T09:42:10.728Z,942.25
2022-08-07T09:43:10.572Z,942.25
2022-08-07T09:47:20.341Z,942.27
2022-08-07T09:48:11.968Z,942.23
2022-08-07T09:50:52.923Z,942.26
2022-08-07T09:52:35.225Z,942.23
2022-08-07T09:53:40.739Z,942.21
2022-08-07T09:54:36.506Z,942.23
2022-08-07T09:56:02.900Z,942.26
2022-08-07T09:56:41.901Z,942.23
2022-08-07T09:57:46.349Z,942.23
2022-08-07T09:58:41.487Z,942.21
2022-08-07T09:59:44.768Z,942.21
2022-08-07T10:00:41.683Z,942.19
2022-08-07T10:01:55.010Z,942.18
2022-08-07T10:02:56.358Z,942.22
2022-08-07T10:04:39.266Z,942.17
2022-08-07T10:05:59.346Z,942.16
2022-08-07T10:06:59.696Z,942.18
2022-08-07T10:07:59.791Z,942.15
2022-08-07T10:08:59.806Z,942.17
2022-08-07T10:10:02.808Z,942.14
2022-08-07T10:11:16.649Z,942.16
2022-08-07T10:12:40.283Z,942.15
2022-08-07T10:14:03.522Z,942.16
2022-08-07T10:15:03.979Z,942.16
2022-08-07T10:16:05.122Z,942.13
2022-08-07T10:17:13.453Z,942.12
2022-08-07T10:18:09.225Z,942.16
2022-08-07T10:19:11.201Z,942.1
2022-08-07T10:20:12.875Z,942.11
2022-08-07T10:21:20.207Z,942.11
2022-08-07T10:22:45.202Z,942.09
2022-08-07T10:24:04.510Z,942.09
2022-08-07T10:25:04.843Z,942.03
2022-08-07T10:26:05.610Z,942.03
2022-08-07T10:27:06.792Z,942.02
2022-08-07T10:28:06.526Z,942.02
2022-08-07T10:29:07.542Z,942.02
2022-08-07T10:30:12.275Z,942.05
2022-08-07T10:31:11.099Z,942
2022-08-07T10:32:16.583Z,942
2022-08-07T10:33:15.788Z,942.02
2022-08-07T10:34:37.801Z,942.03
2022-08-07T10:36:12.456Z,942
2022-08-07T10:37:26.606Z,941.97
2022-08-07T10:39:00.891Z,941.97
2022-08-07T10:40:03.644Z,941.97
2022-08-07T10:41:01.740Z,941.99
2022-08-07T10:42:09.645Z,942.03
2022-08-07T10:43:01.684Z,942.03
2022-08-07T10:44:02.248Z,941.98
2022-08-07T10:45:02.941Z,941.97
2022-08-07T10:46:03.674Z,941.96
2022-08-07T10:47:05.736Z,941.95
2022-08-07T10:48:05.645Z,941.93
2022-08-07T10:49:05.901Z,941.96
2022-08-07T10:50:06.192Z,941.94
2022-08-07T10:51:06.644Z,941.98
2022-08-07T10:52:34.493Z,941.99
2022-08-07T10:53:42.056Z,941.96
2022-08-07T10:54:36.401Z,941.98
2022-08-07T10:55:44.305Z,941.96
2022-08-07T10:56:45.108Z,941.98
2022-08-07T10:57:45.250Z,941.99
2022-08-07T10:58:46.322Z,941.96
2022-08-07T10:59:47.353Z,942
2022-08-07T11:00:50.326Z,941.98
2022-08-07T11:02:02.697Z,941.99
2022-08-07T11:02:53.711Z,942.01
2022-08-07T11:03:58.096Z,941.97
2022-08-07T11:04:53.678Z,941.99
2022-08-07T11:05:54.682Z,941.97
2022-08-07T11:06:54.236Z,941.98
2022-08-07T11:08:34.999Z,941.94
2022-08-07T11:10:08.292Z,941.99
2022-08-07T11:10:35.426Z,942
2022-08-07T11:11:37.531Z,941.98
2022-08-07T11:12:36.990Z,941.96
2022-08-07T11:14:43.347Z,941.95
2022-08-07T11:15:32.275Z,941.89
2022-08-07T11:16:32.521Z,941.89
2022-08-07T11:17:42.899Z,941.91
2022-08-07T11:18:33.758Z,941.88
2022-08-07T11:19:34.074Z,941.88
2022-08-07T11:20:34.462Z,941.86
2022-08-07T11:21:40.716Z,941.89
2022-08-07T11:22:44.186Z,941.87
2022-08-07T11:23:38.734Z,941.87
2022-08-07T11:24:36.937Z,941.85
2022-08-07T11:25:42.399Z,941.9
2022-08-07T11:26:43.376Z,941.88
2022-08-07T11:28:02.144Z,941.9
2022-08-07T11:28:40.266Z,941.88
2022-08-07T11:30:42.460Z,941.89
2022-08-07T11:31:42.377Z,941.89
2022-08-07T11:32:43.276Z,941.88
2022-08-07T11:33:48.657Z,941.85
2022-08-07T11:34:44.234Z,941.84
2022-08-07T11:35:58.872Z,941.86
2022-08-07T11:36:45.574Z,941.86
2022-08-07T11:37:57.730Z,941.83
2022-08-07T11:38:50.465Z,941.82
2022-08-07T11:40:00.889Z,941.82
2022-08-07T11:41:02.589Z,941.79
2022-08-07T11:42:19.486Z,941.81
2022-08-07T11:43:29.882Z,941.75
2022-08-07T11:44:34.967Z,941.79
2022-08-07T11:45:36.458Z,941.78
2022-08-07T11:46:36.825Z,941.79
2022-08-07T11:47:38.764Z,941.8
2022-08-07T11:48:38.082Z,941.72
2022-08-07T11:50:58.328Z,941.75
2022-08-07T11:51:58.391Z,941.73
2022-08-07T11:52:58.990Z,941.75
2022-08-07T11:54:01.332Z,941.76
2022-08-07T11:55:01.158Z,941.69
2022-08-07T11:56:40.636Z,941.7
2022-08-07T11:57:52.413Z,941.74
2022-08-07T11:58:42.288Z,941.7
2022-08-07T12:00:12.702Z,941.68
2022-08-07T12:01:09.340Z,941.7
2022-08-07T12:02:20.797Z,941.7
2022-08-07T12:03:42.347Z,941.7
2022-08-07T12:04:37.688Z,941.72
2022-08-07T12:05:41.554Z,941.76
2022-08-07T12:07:03.100Z,941.76
2022-08-07T12:08:05.387Z,941.73
2022-08-07T12:09:05.684Z,941.75
2022-08-07T12:10:06.073Z,941.75
2022-08-07T12:11:08.547Z,941.75
2022-08-07T12:12:17.560Z,941.74
2022-08-07T12:13:18.575Z,941.71
2022-08-07T12:14:19.321Z,941.69
2022-08-07T12:16:09.033Z,941.66
2022-08-07T12:17:07.572Z,941.65
2022-08-07T12:18:07.973Z,941.63
2022-08-07T12:19:08.073Z,941.62
2022-08-07T12:20:14.166Z,941.65
2022-08-07T12:21:08.848Z,941.66
2022-08-07T12:23:09.606Z,941.67
2022-08-07T12:25:02.117Z,941.63
2022-08-07T12:26:52.737Z,941.61
2022-08-07T12:28:09.191Z,941.59
2022-08-07T12:29:40.302Z,941.62
2022-08-07T12:30:38.597Z,941.62
2022-08-07T12:31:53.463Z,941.6
2022-08-07T12:32:40.010Z,941.61
2022-08-07T12:33:55.856Z,941.63
2022-08-07T12:34:42.075Z,941.64
2022-08-07T12:35:42.217Z,941.63
2022-08-07T12:36:43.159Z,941.59
2022-08-07T12:38:08.837Z,941.61
2022-08-07T12:39:50.477Z,941.58
2022-08-07T12:41:10.595Z,941.59
2022-08-07T12:42:12.167Z,941.58
2022-08-07T12:43:11.678Z,941.56
2022-08-07T12:44:30.474Z,941.54
2022-08-07T12:45:31.119Z,941.52
2022-08-07T12:46:32.650Z,941.5
2022-08-07T12:47:32.997Z,941.48
2022-08-07T12:48:41.290Z,941.46
2022-08-07T12:50:39.688Z,941.43
2022-08-07T12:51:46.877Z,941.46
2022-08-07T12:53:19.284Z,941.45
2022-08-07T12:54:56.662Z,941.41
2022-08-07T12:56:04.160Z,941.44
2022-08-07T12:57:07.212Z,941.44
2022-08-07T12:58:04.407Z,941.39
2022-08-07T12:59:04.762Z,941.4
2022-08-07T13:00:05.328Z,941.42
2022-08-07T13:01:06.077Z,941.4
2022-08-07T13:02:09.742Z,941.44
2022-08-07T13:03:07.258Z,941.45
2022-08-07T13:06:21.783Z,941.42
2022-08-07T13:08:13.173Z,941.41
2022-08-07T13:08:39.186Z,941.41
2022-08-07T13:10:22.197Z,941.38
2022-08-07T13:11:05.350Z,941.37
2022-08-07T13:12:09.806Z,941.36
2022-08-07T13:13:06.752Z,941.39
2022-08-07T13:14:07.597Z,941.36
2022-08-07T13:15:08.617Z,941.38
2022-08-07T13:16:09.036Z,941.37
2022-08-07T13:17:10.073Z,941.39
2022-08-07T13:18:29.378Z,941.43
2022-08-07T13:19:35.336Z,941.4
2022-08-07T13:20:30.704Z,941.41
2022-08-07T13:21:37.969Z,941.37
2022-08-07T13:22:42.756Z,941.36
2022-08-07T13:24:11.682Z,941.4
2022-08-07T13:25:15.310Z,941.34
2022-08-07T13:26:15.837Z,941.35
2022-08-07T13:27:13.512Z,941.31
2022-08-07T13:28:24.104Z,941.35
2022-08-07T13:29:19.979Z,941.32
2022-08-07T13:30:40.789Z,941.34
2022-08-07T13:31:21.288Z,941.3
2022-08-07T13:32:38.803Z,941.34
2022-08-07T13:34:14.964Z,941.28
2022-08-07T13:34:54.253Z,941.29
2022-08-07T13:35:59.450Z,941.3
2022-08-07T13:36:55.482Z,941.24
2022-08-07T13:37:59.291Z,941.19
2022-08-07T13:38:57.051Z,941.25
2022-08-07T13:41:12.497Z,941.22
2022-08-07T13:42:13.450Z,941.24
2022-08-07T13:43:15.024Z,941.22
2022-08-07T13:44:14.793Z,941.21
2022-08-07T13:46:06.267Z,941.26
2022-08-07T13:46:55.001Z,941.23
2022-08-07T13:48:05.266Z,941.2
2022-08-07T13:49:08.989Z,941.23
2022-08-07T13:52:22.420Z,941.17
2022-08-07T13:54:03.837Z,941.22
2022-08-07T13:55:04.650Z,941.21
2022-08-07T13:56:04.985Z,941.18
2022-08-07T13:57:05.699Z,941.18
2022-08-07T13:58:06.721Z,941.17
2022-08-07T13:59:10.312Z,941.2
2022-08-07T14:00:08.094Z,941.14
2022-08-07T14:01:08.985Z,941.18
2022-08-07T14:02:10.158Z,941.19
2022-08-07T14:03:10.216Z,941.17
2022-08-07T14:04:56.019Z,941.15
2022-08-07T14:05:56.175Z,941.15
2022-08-07T14:06:56.903Z,941.19
2022-08-07T14:07:59.860Z,941.22
2022-08-07T14:08:58.745Z,941.23
2022-08-07T14:10:43.471Z,941.2
2022-08-07T14:12:00.598Z,941.18
2022-08-07T14:12:55.570Z,941.18
2022-08-07T14:13:55.766Z,941.22
2022-08-07T14:14:56.331Z,941.22
2022-08-07T14:15:56.899Z,941.21
2022-08-07T14:16:56.695Z,941.19
2022-08-07T14:18:42.954Z,941.18
2022-08-07T14:20:44.541Z,941.18
2022-08-07T14:22:11.483Z,941.1
2022-08-07T14:23:02.383Z,941.12
2022-08-07T14:24:02.365Z,941.09
2022-08-07T14:25:02.586Z,941.07
2022-08-07T14:26:03.247Z,941.09
2022-08-07T14:27:16.346Z,941.05
2022-08-07T14:30:10.547Z,941.06
2022-08-07T14:31:17.294Z,941.04